Time;durP1;ratioP1;P1;durP2;ratioP2;P2;SDS_P1;SDS_P2;PMS_P1;PMS_P2;Temp;Humidity;BMP_temperature;BMP_pressure;BME280_temperature;BME280_humidity;BME280_pressure;Samples;Min_cycle;Max_cycle;Signal;HPM_P1;HPM_P2
2022/11/27 00:00:46;;;;;;;59.40;35.28;;;7.20;99.90;;;;;;5030420;28;20406;-84
2022/11/27 00:03:13;;;;;;;56.63;35.05;;;7.20;99.90;;;;;;5043385;28;20263;-84
2022/11/27 00:05:40;;;;;;;62.45;36.47;;;;;;;;;;5025428;28;20235;-85
2022/11/27 00:08:07;;;;;;;66.50;35.40;;;;;;;;;;5023433;28;20280;-85
2022/11/27 00:10:34;;;;;;;58.08;34.30;;;7.40;99.90;;;;;;5031138;28;20224;-84
2022/11/27 00:13:01;;;;;;;63.03;35.33;;;7.50;99.90;;;;;;5021497;28;20617;-85
2022/11/27 00:15:29;;;;;;;52.80;37.22;;;;;;;;;;5033907;28;20212;-84
2022/11/27 00:17:56;;;;;;;57.63;33.47;;;;;;;;;;5023051;28;20310;-86
2022/11/27 00:20:23;;;;;;;67.60;37.75;;;;;;;;;;5029608;28;20209;-84
2022/11/27 00:22:55;;;;;;;52.55;35.83;;;7.80;99.90;;;;;;5023256;28;20228;-85
2022/11/27 00:25:22;;;;;;;57.13;34.78;;;7.90;99.90;;;;;;5021088;28;20237;-86
2022/11/27 00:27:49;;;;;;;55.78;35.60;;;8.00;99.90;;;;;;5017647;28;20283;-84
2022/11/27 00:30:16;;;;;;;55.55;32.90;;;7.90;99.90;;;;;;5028947;28;20263;-85
2022/11/27 00:32:43;;;;;;;48.58;33.85;;;7.80;99.90;;;;;;5027764;28;20209;-85
2022/11/27 00:35:13;;;;;;;51.97;31.10;;;7.80;99.90;;;;;;5021801;28;20312;-85
2022/11/27 00:37:40;;;;;;;49.50;32.38;;;7.90;99.90;;;;;;5023606;28;20202;-85
2022/11/27 00:40:07;;;;;;;54.55;31.95;;;7.90;99.90;;;;;;5020339;28;20206;-84
2022/11/27 00:42:34;;;;;;;51.92;32.15;;;8.00;99.90;;;;;;5035267;28;20219;-85
2022/11/27 00:45:02;;;;;;;49.33;32.60;;;8.00;99.90;;;;;;5022173;28;20462;-86
2022/11/27 00:47:28;;;;;;;50.33;32.85;;;7.80;99.90;;;;;;5021005;28;20233;-85
2022/11/27 00:49:55;;;;;;;54.72;33.40;;;8.60;99.90;;;;;;5028927;28;20198;-85
2022/11/27 00:52:22;;;;;;;59.00;34.13;;;8.00;99.90;;;;;;5025833;28;20212;-85
2022/11/27 00:54:50;;;;;;;51.55;31.58;;;8.00;99.90;;;;;;5030269;28;20454;-85
2022/11/27 00:57:17;;;;;;;45.17;29.83;;;8.90;99.90;;;;;;5007938;28;20210;-85
2022/11/27 00:59:44;;;;;;;56.67;30.90;;;7.90;99.90;;;;;;5028698;28;20205;-85
2022/11/27 01:02:11;;;;;;;70.13;34.17;;;7.40;99.90;;;;;;5021749;28;20267;-85
2022/11/27 01:04:39;;;;;;;52.85;29.00;;;7.30;99.90;;;;;;5018419;28;20549;-85
2022/11/27 01:07:06;;;;;;;62.55;33.50;;;7.40;99.90;;;;;;5020658;28;20444;-85
2022/11/27 01:09:33;;;;;;;51.60;30.65;;;7.20;99.90;;;;;;5021473;28;20229;-85
2022/11/27 01:12:01;;;;;;;51.05;32.25;;;7.40;99.90;;;;;;5025492;28;20259;-85
2022/11/27 01:14:27;;;;;;;52.97;29.40;;;7.60;99.90;;;;;;5027378;28;20210;-85
2022/11/27 01:16:54;;;;;;;55.85;30.73;;;7.60;99.90;;;;;;5032833;28;20219;-84
2022/11/27 01:19:21;;;;;;;64.38;31.27;;;7.70;99.90;;;;;;5031724;28;20205;-84
2022/11/27 01:21:48;;;;;;;50.30;32.63;;;7.40;99.90;;;;;;5018075;28;20215;-84
2022/11/27 01:24:15;;;;;;;56.53;33.08;;;8.00;99.90;;;;;;5017876;28;20524;-84
2022/11/27 01:26:43;;;;;;;58.88;33.33;;;7.50;99.90;;;;;;5028126;28;20198;-84
2022/11/27 01:29:10;;;;;;;48.70;31.67;;;7.50;99.90;;;;;;5024807;28;20510;-85
2022/11/27 01:31:38;;;;;;;53.83;31.17;;;7.50;99.90;;;;;;5017533;28;20261;-85
2022/11/27 01:34:07;;;;;;;65.85;35.25;;;7.00;99.90;;;;;;5028628;28;20500;-86
2022/11/27 01:36:35;;;;;;;69.63;33.10;;;6.80;99.90;;;;;;5027598;28;20205;-84
2022/11/27 01:39:02;;;;;;;57.22;32.45;;;6.70;99.90;;;;;;5028193;28;20382;-84
2022/11/27 01:41:33;;;;;;;52.22;32.53;;;6.80;99.90;;;;;;5016689;28;20410;-84
2022/11/27 01:44:26;;;;;;;69.40;34.83;;;6.50;99.90;;;;;;5029100;28;20212;-84
2022/11/27 01:47:13;;;;;;;64.40;35.65;;;6.60;99.90;;;;;;5030500;28;20632;-84
2022/11/27 01:49:46;;;;;;;55.63;32.40;;;6.90;99.90;;;;;;5034557;28;20210;-84
2022/11/27 01:52:18;;;;;;;54.33;33.17;;;7.10;99.90;;;;;;5016018;28;20201;-85
2022/11/27 01:55:02;;;;;;;62.88;35.95;;;7.30;99.90;;;;;;5028442;28;20247;-85
2022/11/27 01:57:39;;;;;;;68.90;36.28;;;7.30;99.90;;;;;;5024980;28;20197;-85
2022/11/27 02:00:11;;;;;;;75.13;35.08;;;7.50;99.90;;;;;;5020870;28;20206;-85
2022/11/27 02:02:40;;;;;;;74.28;36.65;;;7.50;99.90;;;;;;5023278;28;20252;-85
2022/11/27 02:05:09;;;;;;;63.45;37.05;;;8.60;99.90;;;;;;5023957;28;20268;-85
2022/11/27 02:07:36;;;;;;;71.90;34.38;;;7.40;99.90;;;;;;5029735;28;20205;-85
2022/11/27 02:10:05;;;;;;;64.20;34.13;;;7.40;99.90;;;;;;5018005;28;20206;-85
2022/11/27 02:12:59;;;;;;;57.30;33.80;;;7.30;99.90;;;;;;5024580;28;20382;-85
2022/11/27 02:15:37;;;;;;;62.20;32.95;;;7.40;99.90;;;;;;5029696;28;20221;-85
2022/11/27 02:18:09;;;;;;;71.75;38.55;;;7.50;99.90;;;;;;5024734;28;20232;-85
2022/11/27 02:20:50;;;;;;;64.65;34.92;;;7.60;99.90;;;;;;5028717;28;20200;-85
2022/11/27 02:23:45;;;;;;;57.13;33.97;;;9.10;99.90;;;;;;5021984;28;20205;-86
2022/11/27 02:26:50;;;;;;;65.00;39.45;;;7.60;99.90;;;;;;5022429;28;20224;-85
2022/11/27 02:29:26;;;;;;;72.43;38.50;;;7.60;99.90;;;;;;5012333;28;20205;-85
2022/11/27 02:32:15;;;;;;;67.63;37.85;;;7.70;99.90;;;;;;5018819;28;20252;-86
2022/11/27 02:34:52;;;;;;;87.13;42.78;;;7.80;99.90;;;;;;5025611;28;20197;-85
2022/11/27 02:37:25;;;;;;;69.85;37.60;;;7.80;99.90;;;;;;5016963;28;20500;-86
2022/11/27 02:40:30;;;;;;;75.97;38.65;;;7.70;99.90;;;;;;5018532;28;20217;-85
2022/11/27 02:43:18;;;;;;;76.55;38.72;;;7.50;99.90;;;;;;5020213;28;20209;-85
2022/11/27 02:45:50;;;;;;;72.85;38.47;;;7.70;99.90;;;;;;5021620;28;20238;-86
2022/11/27 02:48:22;;;;;;;79.63;39.20;;;7.50;99.90;;;;;;5012598;28;20217;-86
2022/11/27 02:50:50;;;;;;;71.90;39.45;;;7.50;99.90;;;;;;5016758;28;20212;-86
2022/11/27 02:53:23;;;;;;;80.45;42.00;;;8.60;99.90;;;;;;5023921;28;20209;-85
2022/11/27 02:55:52;;;;;;;79.78;39.13;;;7.50;99.90;;;;;;5021720;28;20238;-86
2022/11/27 02:58:26;;;;;;;80.20;38.78;;;8.00;99.90;;;;;;5015407;28;20202;-86
2022/11/27 03:00:55;;;;;;;72.65;35.40;;;8.00;99.90;;;;;;5029454;28;20212;-86
2022/11/27 03:03:30;;;;;;;75.47;38.65;;;8.10;99.90;;;;;;5032185;28;20197;-86
2022/11/27 03:06:01;;;;;;;87.60;37.97;;;8.40;99.90;;;;;;5026173;28;20248;-85
2022/11/27 03:08:58;;;;;;;75.15;34.22;;;8.30;99.90;;;;;;5026930;28;20210;-86
2022/11/27 03:11:26;;;;;;;79.75;41.28;;;7.40;99.90;;;;;;5002857;28;20198;-85
2022/11/27 03:13:55;;;;;;;88.78;36.90;;;8.00;99.90;;;;;;5025440;28;20220;-85
2022/11/27 03:16:46;;;;;;;62.25;32.30;;;7.50;99.90;;;;;;5022935;28;20220;-86
2022/11/27 03:19:29;;;;;;;68.15;32.60;;;7.30;99.90;;;;;;5021058;28;20201;-86
2022/11/27 03:21:59;;;;;;;63.97;33.05;;;6.90;99.90;;;;;;5014134;28;20257;-86
2022/11/27 03:24:28;;;;;;;73.45;35.35;;;6.70;99.90;;;;;;5012583;28;20528;-86
2022/11/27 03:26:57;;;;;;;56.67;29.60;;;6.90;99.90;;;;;;5028784;28;20563;-86
2022/11/27 03:29:34;;;;;;;67.97;32.65;;;7.20;99.90;;;;;;5031590;28;20274;-86
2022/11/27 03:32:03;;;;;;;67.88;31.75;;;7.30;99.90;;;;;;5026425;28;20213;-86
2022/11/27 03:34:30;;;;;;;78.82;32.65;;;7.30;99.90;;;;;;5018226;28;20393;-87
2022/11/27 03:36:57;;;;;;;73.25;32.58;;;7.30;99.90;;;;;;5031963;28;20210;-86
2022/11/27 03:39:25;;;;;;;58.10;29.15;;;7.60;99.90;;;;;;5017939;28;20310;-85
2022/11/27 03:42:10;;;;;;;57.30;30.98;;;7.60;99.90;;;;;;5041678;28;20210;-86
2022/11/27 03:45:01;;;;;;;60.80;30.77;;;8.00;99.90;;;;;;5026108;28;20233;-86
2022/11/27 03:47:53;;;;;;;65.85;30.63;;;7.50;99.90;;;;;;5029528;28;20205;-86
2022/11/27 03:50:33;;;;;;;68.70;30.38;;;7.60;99.90;;;;;;5028323;28;20205;-85
2022/11/27 03:53:20;;;;;;;64.43;28.63;;;7.70;99.90;;;;;;5009899;28;20439;-85
2022/11/27 03:56:06;;;;;;;59.78;29.88;;;7.90;99.90;;;;;;5018163;28;20252;-85
2022/11/27 03:59:05;;;;;;;60.33;32.05;;;7.90;99.90;;;;;;5018067;28;20246;-85
2022/11/27 04:01:35;;;;;;;73.85;30.95;;;7.90;99.90;;;;;;5024952;28;20289;-85
2022/11/27 04:04:02;;;;;;;55.22;28.70;;;7.90;99.90;;;;;;5016912;28;20424;-85
2022/11/27 04:06:29;;;;;;;50.92;28.20;;;8.00;99.90;;;;;;5024426;28;20374;-85
2022/11/27 04:08:56;;;;;;;51.42;26.42;;;8.00;99.90;;;;;;5017838;28;20209;-85
2022/11/27 04:11:23;;;;;;;69.00;31.20;;;8.00;99.90;;;;;;5030831;28;20232;-85
2022/11/27 04:13:53;;;;;;;55.92;28.83;;;8.30;99.90;;;;;;5024345;28;20205;-86
2022/11/27 04:16:20;;;;;;;74.32;32.03;;;8.00;99.90;;;;;;5026274;28;20716;-86
2022/11/27 04:18:47;;;;;;;69.22;30.10;;;8.00;99.90;;;;;;5021087;28;20419;-86
2022/11/27 04:21:15;;;;;;;74.57;31.63;;;8.00;99.90;;;;;;5029535;28;20204;-86
2022/11/27 04:23:43;;;;;;;65.32;30.58;;;7.60;99.90;;;;;;5032565;28;20271;-85
2022/11/27 04:26:10;;;;;;;64.65;34.72;;;7.40;99.90;;;;;;5023308;28;20291;-85
2022/11/27 04:28:37;;;;;;;72.35;30.80;;;7.00;99.90;;;;;;5025088;28;20268;-84
2022/11/27 04:31:04;;;;;;;73.60;31.85;;;7.20;99.90;;;;;;5021876;28;20505;-85
2022/11/27 04:33:31;;;;;;;64.47;32.65;;;7.30;99.90;;;;;;5017025;28;20510;-84
2022/11/27 04:35:59;;;;;;;62.10;30.98;;;7.50;99.90;;;;;;5008466;28;20264;-85
2022/11/27 04:38:25;;;;;;;69.15;29.40;;;7.50;99.90;;;;;;5016455;28;20240;-85
2022/11/27 04:40:53;;;;;;;58.80;31.48;;;7.70;99.90;;;;;;5033151;28;20288;-84
2022/11/27 04:43:20;;;;;;;56.47;28.80;;;7.80;99.90;;;;;;5030472;28;20228;-86
2022/11/27 04:45:46;;;;;;;55.95;28.08;;;7.80;99.90;;;;;;5018571;28;20221;-85
2022/11/27 04:48:13;;;;;;;66.68;31.90;;;7.80;99.90;;;;;;5025770;28;20576;-85
2022/11/27 04:50:40;;;;;;;57.15;29.65;;;7.80;99.90;;;;;;5042036;28;20202;-85
2022/11/27 04:53:07;;;;;;;58.10;28.92;;;7.60;99.90;;;;;;5042634;28;20508;-85
2022/11/27 04:55:34;;;;;;;61.45;29.70;;;7.70;99.90;;;;;;5030597;28;20197;-85
2022/11/27 04:58:02;;;;;;;59.17;30.60;;;7.90;99.90;;;;;;5032319;28;20213;-86
2022/11/27 05:00:29;;;;;;;83.72;32.63;;;8.20;99.90;;;;;;5022242;28;20212;-85
2022/11/27 05:02:56;;;;;;;64.60;28.67;;;8.00;99.90;;;;;;5026104;28;20269;-85
2022/11/27 05:05:24;;;;;;;50.88;27.02;;;7.90;99.90;;;;;;5022683;28;20236;-85
2022/11/27 05:07:50;;;;;;;55.08;29.02;;;7.50;99.90;;;;;;5019320;28;20212;-85
2022/11/27 05:10:17;;;;;;;72.78;30.52;;;7.60;99.90;;;;;;5026378;28;20247;-85
2022/11/27 05:12:44;;;;;;;46.40;26.02;;;7.60;99.90;;;;;;5029906;28;20513;-85
2022/11/27 05:15:11;;;;;;;61.25;29.98;;;7.70;99.90;;;;;;5023796;28;20205;-85
2022/11/27 05:17:39;;;;;;;55.47;28.48;;;7.70;99.90;;;;;;5022475;28;20518;-85
2022/11/27 05:20:06;;;;;;;72.47;27.55;;;7.80;99.90;;;;;;5017990;28;20265;-85
2022/11/27 05:22:33;;;;;;;71.07;29.83;;;7.90;99.90;;;;;;5025681;28;20201;-85
2022/11/27 05:25:02;;;;;;;57.95;29.10;;;8.10;99.90;;;;;;5026513;28;20476;-85
2022/11/27 05:27:29;;;;;;;74.13;32.38;;;8.10;99.90;;;;;;5021276;28;20206;-85
2022/11/27 05:29:56;;;;;;;52.40;27.15;;;8.50;99.90;;;;;;5027093;28;20409;-85
2022/11/27 05:32:22;;;;;;;67.40;30.10;;;8.30;99.90;;;;;;5021558;28;20222;-84
2022/11/27 05:34:51;;;;;;;58.35;29.70;;;8.00;99.90;;;;;;5040270;28;20209;-85
2022/11/27 05:37:18;;;;;;;42.53;25.85;;;8.10;99.90;;;;;;5009717;28;20202;-85
2022/11/27 05:39:45;;;;;;;48.38;25.80;;;8.20;99.90;;;;;;5026835;28;20209;-86
2022/11/27 05:42:12;;;;;;;53.90;29.45;;;8.30;99.90;;;;;;5026320;28;20221;-86
2022/11/27 05:44:39;;;;;;;48.55;26.45;;;8.30;99.90;;;;;;5014084;28;20745;-86
2022/11/27 05:47:07;;;;;;;71.50;28.58;;;8.20;99.90;;;;;;5030562;28;20237;-86
2022/11/27 05:49:34;;;;;;;58.20;29.10;;;8.20;99.90;;;;;;5020789;28;20217;-85
2022/11/27 05:52:01;;;;;;;57.78;30.20;;;8.40;99.90;;;;;;5024348;28;20264;-85
2022/11/27 05:54:28;;;;;;;48.78;29.27;;;8.10;99.90;;;;;;5019561;28;20276;-85
2022/11/27 05:56:55;;;;;;;63.83;31.95;;;8.50;99.90;;;;;;5024214;28;20247;-86
2022/11/27 05:59:22;;;;;;;61.42;30.95;;;8.20;99.90;;;;;;5010343;28;20209;-85
2022/11/27 06:01:49;;;;;;;73.72;27.00;;;8.10;99.90;;;;;;5009923;28;20221;-85
2022/11/27 06:04:17;;;;;;;51.60;27.10;;;8.10;99.90;;;;;;5018790;28;20255;-85
2022/11/27 06:06:44;;;;;;;51.42;26.77;;;8.10;99.90;;;;;;5018008;28;20279;-85
2022/11/27 06:09:12;;;;;;;47.42;24.63;;;8.00;99.90;;;;;;5018906;28;20268;-85
2022/11/27 06:11:40;;;;;;;51.03;26.88;;;7.90;99.90;;;;;;5033102;28;20240;-84
2022/11/27 06:14:08;;;;;;;52.35;28.25;;;7.90;99.90;;;;;;5019120;28;20331;-85
2022/11/27 06:16:36;;;;;;;50.38;27.30;;;8.00;99.90;;;;;;5017560;28;20260;-85
2022/11/27 06:19:03;;;;;;;49.55;25.63;;;7.90;99.90;;;;;;5029774;28;20214;-85
2022/11/27 06:21:30;;;;;;;55.08;27.50;;;7.90;99.90;;;;;;5021411;28;20260;-85
2022/11/27 06:23:57;;;;;;;55.13;27.40;;;7.90;99.90;;;;;;5025487;28;20509;-85
2022/11/27 06:26:29;;;;;;;64.65;29.38;;;8.20;99.90;;;;;;5016780;28;20230;-84
2022/11/27 06:28:57;;;;;;;62.47;29.23;;;8.10;99.90;;;;;;5026760;28;20283;-85
2022/11/27 06:31:27;;;;;;;60.28;28.02;;;8.10;99.90;;;;;;5016174;28;20449;-85
2022/11/27 06:33:55;;;;;;;61.72;29.90;;;8.20;99.90;;;;;;5014240;28;20249;-85
2022/11/27 06:36:26;;;;;;;59.45;29.10;;;8.00;99.90;;;;;;5026505;28;20777;-85
2022/11/27 06:38:53;;;;;;;57.35;31.92;;;7.90;99.90;;;;;;5017055;28;20206;-85
2022/11/27 06:41:23;;;;;;;58.30;27.70;;;7.50;99.90;;;;;;5025408;28;20390;-85
2022/11/27 06:43:50;;;;;;;45.25;24.45;;;7.30;99.90;;;;;;5019384;28;20256;-84
2022/11/27 06:46:20;;;;;;;59.35;30.80;;;7.20;99.90;;;;;;5031146;28;20271;-85
2022/11/27 06:48:49;;;;;;;44.50;26.60;;;7.20;99.90;;;;;;5022547;28;20255;-85
2022/11/27 06:51:19;;;;;;;47.40;25.67;;;7.20;99.90;;;;;;5018187;28;20482;-86
2022/11/27 06:53:47;;;;;;;44.28;24.38;;;6.80;99.90;;;;;;5031539;28;20210;-85
2022/11/27 06:56:17;;;;;;;44.60;25.58;;;7.40;99.90;;;;;;5024921;28;20201;-86
2022/11/27 06:58:44;;;;;;;44.72;24.42;;;7.10;99.90;;;;;;5005790;28;20214;-85
2022/11/27 07:01:13;;;;;;;53.38;28.90;;;6.80;99.90;;;;;;5017670;28;20213;-85
2022/11/27 07:03:41;;;;;;;63.85;30.73;;;6.70;99.90;;;;;;5012853;28;20213;-84
2022/11/27 07:06:11;;;;;;;56.90;30.23;;;6.60;99.90;;;;;;5007520;28;20269;-85
2022/11/27 07:08:38;;;;;;;47.92;28.98;;;6.30;99.90;;;;;;5018814;28;20207;-84
2022/11/27 07:11:11;;;;;;;61.33;30.60;;;6.20;99.90;;;;;;5031071;28;20218;-85
2022/11/27 07:13:39;;;;;;;62.67;29.88;;;6.20;99.90;;;;;;5035863;28;20318;-82
2022/11/27 07:16:08;;;;;;;61.00;32.97;;;6.10;99.90;;;;;;5024614;28;20217;-83
2022/11/27 07:18:40;;;;;;;59.63;28.67;;;6.00;99.90;;;;;;5025839;28;20224;-83
2022/11/27 07:21:07;;;;;;;64.90;27.25;;;6.00;99.90;;;;;;5030736;28;20197;-87
2022/11/27 07:23:35;;;;;;;53.22;27.55;;;6.10;99.90;;;;;;5005511;28;20255;-85
2022/11/27 07:26:24;;;;;;;67.20;30.25;;;6.10;99.90;;;;;;5009500;28;20233;-84
2022/11/27 07:28:53;;;;;;;55.50;26.55;;;6.20;99.90;;;;;;5010274;28;20210;-83
2022/11/27 07:31:26;;;;;;;49.28;23.98;;;6.10;99.90;;;;;;5029142;28;20213;-84
2022/11/27 07:33:54;;;;;;;55.00;25.65;;;6.10;99.90;;;;;;5016907;28;20213;-84
2022/11/27 07:36:28;;;;;;;48.65;26.13;;;6.20;99.90;;;;;;5005900;28;20257;-85
2022/11/27 07:38:55;;;;;;;53.75;26.67;;;6.10;99.90;;;;;;5013495;28;20202;-82
2022/11/27 07:41:22;;;;;;;44.22;22.92;;;6.20;99.90;;;;;;5022068;28;20193;-83
2022/11/27 07:43:49;;;;;;;43.60;19.02;;;6.20;99.90;;;;;;5033563;28;20193;-83
2022/11/27 07:46:21;;;;;;;49.58;23.33;;;6.50;99.90;;;;;;5032753;28;20209;-84
2022/11/27 07:48:49;;;;;;;47.33;23.83;;;6.40;99.90;;;;;;5031690;28;20197;-84
2022/11/27 07:51:19;;;;;;;41.60;20.63;;;6.30;99.90;;;;;;5022300;28;20244;-84
2022/11/27 07:53:50;;;;;;;44.88;24.50;;;6.50;99.90;;;;;;5023240;28;20239;-83
2022/11/27 07:56:21;;;;;;;39.45;20.92;;;6.60;99.90;;;;;;5019862;28;20220;-84
2022/11/27 07:58:48;;;;;;;41.03;20.02;;;6.70;99.90;;;;;;5025795;28;20205;-85
2022/11/27 08:01:18;;;;;;;45.33;22.20;;;6.80;99.90;;;;;;5021320;28;20208;-84
2022/11/27 08:03:47;;;;;;;41.15;23.10;;;6.80;99.90;;;;;;5018058;28;20244;-83
2022/11/27 08:06:18;;;;;;;32.13;20.60;;;7.00;99.90;;;;;;5019935;28;20276;-82
2022/11/27 08:08:45;;;;;;;41.80;20.90;;;7.00;99.90;;;;;;5026299;28;20497;-83
2022/11/27 08:11:21;;;;;;;38.08;21.05;;;7.00;99.90;;;;;;5029361;28;20205;-82
2022/11/27 08:13:49;;;;;;;36.92;21.75;;;6.90;99.90;;;;;;5026720;28;20541;-84
2022/11/27 08:16:16;;;;;;;40.17;22.50;;;7.00;99.90;;;;;;5033215;28;20288;-83
2022/11/27 08:18:44;;;;;;;44.40;25.13;;;7.10;99.90;;;;;;5030756;28;20211;-83
2022/11/27 08:21:12;;;;;;;51.28;26.30;;;7.10;99.90;;;;;;5011314;28;20241;-82
2022/11/27 08:23:40;;;;;;;42.80;26.33;;;7.50;99.90;;;;;;5022994;28;20425;-83
2022/11/27 08:26:09;;;;;;;40.42;23.35;;;7.50;99.90;;;;;;5035728;28;20409;-82
2022/11/27 08:28:37;;;;;;;43.33;25.48;;;7.40;99.90;;;;;;5016517;28;20198;-82
2022/11/27 08:31:05;;;;;;;40.20;24.42;;;7.40;99.90;;;;;;5013937;28;20590;-84
2022/11/27 08:33:32;;;;;;;43.30;24.65;;;7.40;99.90;;;;;;5020438;28;20849;-84
2022/11/27 08:36:01;;;;;;;47.72;24.13;;;7.60;99.90;;;;;;5020582;28;20477;-83
2022/11/27 08:38:29;;;;;;;39.63;22.52;;;7.50;99.90;;;;;;5019523;28;20255;-84
2022/11/27 08:41:00;;;;;;;44.35;23.65;;;7.70;99.90;;;;;;5016774;28;20210;-84
2022/11/27 08:43:30;;;;;;;36.25;19.67;;;8.30;99.90;;;;;;5017058;28;20213;-84
2022/11/27 08:45:57;;;;;;;34.08;18.90;;;8.60;99.90;;;;;;5022970;28;20208;-84
2022/11/27 08:48:25;;;;;;;28.05;18.40;;;8.40;99.90;;;;;;5032865;28;20717;-86
2022/11/27 08:50:52;;;;;;;38.65;19.67;;;8.50;99.90;;;;;;5030224;28;20264;-84
2022/11/27 08:53:19;;;;;;;29.67;17.05;;;9.10;99.90;;;;;;5018217;28;20202;-85
2022/11/27 08:55:46;;;;;;;31.00;18.10;;;8.60;99.90;;;;;;5036260;28;20205;-84
2022/11/27 08:58:13;;;;;;;29.98;16.70;;;8.50;99.90;;;;;;5017286;28;20260;-84
2022/11/27 09:00:41;;;;;;;28.30;16.83;;;8.30;99.90;;;;;;5025501;28;20522;-84
2022/11/27 09:03:10;;;;;;;27.38;15.85;;;8.30;99.90;;;;;;5027948;28;20217;-83
2022/11/27 09:05:44;;;;;;;23.10;15.15;;;8.30;99.90;;;;;;5030181;28;20224;-86
2022/11/27 09:08:18;;;;;;;23.88;16.13;;;8.60;99.90;;;;;;5023417;28;20249;-85
2022/11/27 09:10:45;;;;;;;31.25;15.68;;;8.30;99.90;;;;;;5017306;28;20201;-85
2022/11/27 09:13:13;;;;;;;23.63;14.80;;;8.20;99.90;;;;;;5028304;28;20201;-84
2022/11/27 09:15:41;;;;;;;22.40;16.10;;;8.00;99.90;;;;;;5025991;28;20204;-85
2022/11/27 09:18:09;;;;;;;25.52;16.80;;;8.00;99.90;;;;;;5028510;28;20210;-86
2022/11/27 09:20:35;;;;;;;21.50;14.40;;;8.00;99.90;;;;;;5003993;28;20228;-84
2022/11/27 09:23:03;;;;;;;21.75;14.57;;;8.10;99.90;;;;;;5010929;28;20201;-84
2022/11/27 09:25:40;;;;;;;23.02;15.38;;;8.10;99.90;;;;;;5025430;28;20252;-83
2022/11/27 09:28:07;;;;;;;22.13;14.82;;;8.00;99.90;;;;;;5034493;28;20235;-85
2022/11/27 09:30:36;;;;;;;33.03;18.33;;;8.10;99.90;;;;;;5022381;28;20209;-84
2022/11/27 09:33:02;;;;;;;34.70;19.80;;;7.80;99.90;;;;;;5012173;28;20198;-84
2022/11/27 09:35:29;;;;;;;30.83;20.38;;;7.90;99.90;;;;;;5017899;28;20206;-84
2022/11/27 09:37:56;;;;;;;28.05;16.25;;;7.70;99.90;;;;;;5012913;28;20533;-85
2022/11/27 09:40:24;;;;;;;33.72;18.27;;;7.70;99.90;;;;;;5018876;28;20228;-82
2022/11/27 09:43:16;;;;;;;26.58;17.17;;;7.50;99.90;;;;;;5025658;28;20201;-86
2022/11/27 09:46:00;;;;;;;35.35;20.80;;;7.40;99.90;;;;;;5023331;28;20212;-88
2022/11/27 09:48:43;;;;;;;33.00;20.15;;;7.30;99.90;;;;;;5028669;28;20445;-88
2022/11/27 09:51:32;;;;;;;32.40;18.10;;;7.50;99.90;;;;;;5031098;28;20219;-86
2022/11/27 09:54:21;;;;;;;37.28;20.48;;;7.50;99.90;;;;;;5046180;28;20206;-87
2022/11/27 09:56:52;;;;;;;30.33;18.70;;;7.50;99.90;;;;;;5014236;28;20306;-86
2022/11/27 09:59:21;;;;;;;27.65;15.75;;;7.40;99.90;;;;;;5044193;28;20201;-88
2022/11/27 10:01:48;;;;;;;41.55;21.10;;;7.70;99.90;;;;;;5036132;28;20192;-87
2022/11/27 10:04:20;;;;;;;31.80;18.55;;;7.50;99.90;;;;;;5029796;28;20201;-86
2022/11/27 10:07:27;;;;;;;95.57;37.10;;;7.50;99.90;;;;;;5009321;28;20295;-89
2022/11/27 10:10:46;;;;;;;35.95;19.30;;;7.60;99.90;;;;;;5033892;28;20271;-88
2022/11/27 10:13:52;;;;;;;117.35;45.10;;;7.90;99.90;;;;;;5032829;28;20210;-87
2022/11/27 10:16:32;;;;;;;96.53;41.72;;;7.90;99.90;;;;;;5027160;28;20513;-90
2022/11/27 10:19:27;;;;;;;40.35;21.20;;;7.80;99.90;;;;;;5028934;28;20304;-87
2022/11/27 10:22:00;;;;;;;42.92;22.33;;;8.50;99.90;;;;;;5013529;28;20280;-87
2022/11/27 10:24:41;;;;;;;33.80;17.05;;;7.80;99.90;;;;;;5021643;28;20209;-87
2022/11/27 10:27:41;;;;;;;32.67;18.40;;;8.00;99.90;;;;;;5021310;28;20273;-88
2022/11/27 10:30:20;;;;;;;33.78;19.10;;;8.20;99.90;;;;;;5016232;28;20207;-88
2022/11/27 10:32:54;;;;;;;35.60;19.38;;;9.40;99.90;;;;;;5022948;28;20205;-88
2022/11/27 10:35:29;;;;;;;27.88;18.05;;;8.80;99.90;;;;;;5025027;28;20197;-86
2022/11/27 10:38:08;;;;;;;25.00;14.93;;;10.10;99.90;;;;;;5010365;28;20197;-88
2022/11/27 10:41:07;;;;;;;23.80;16.70;;;8.80;99.90;;;;;;5028793;28;20193;-88
2022/11/27 10:43:37;;;;;;;21.45;14.15;;;8.90;99.90;;;;;;5024226;28;20514;-86
2022/11/27 10:46:14;;;;;;;22.65;14.30;;;9.00;99.90;;;;;;5019900;28;20221;-87
2022/11/27 10:48:41;;;;;;;23.38;14.82;;;8.50;99.90;;;;;;5026663;28;20233;-86
2022/11/27 10:51:18;;;;;;;26.38;17.70;;;8.20;99.90;;;;;;5029882;28;20255;-87
2022/11/27 10:53:49;;;;;;;28.88;16.90;;;8.20;99.90;;;;;;5022264;28;20198;-86
2022/11/27 10:56:19;;;;;;;31.00;16.17;;;8.10;99.90;;;;;;5004527;28;20418;-88
2022/11/27 10:59:25;;;;;;;24.23;15.73;;;8.30;99.90;;;;;;5032586;28;20201;-87
2022/11/27 11:01:59;;;;;;;21.90;14.13;;;8.20;99.90;;;;;;5012258;28;20433;-87
2022/11/27 11:04:29;;;;;;;37.35;19.17;;;7.90;99.90;;;;;;5028178;28;20209;-90
2022/11/27 11:07:25;;;;;;;21.48;13.55;;;7.80;99.90;;;;;;5018365;28;20229;-87
2022/11/27 11:09:55;;;;;;;27.50;15.23;;;7.90;99.90;;;;;;5011598;28;20200;-86
2022/11/27 11:12:22;;;;;;;43.55;24.15;;;8.10;99.90;;;;;;5029236;28;20387;-85
2022/11/27 11:14:55;;;;;;;31.13;17.80;;;8.20;99.90;;;;;;5023928;28;20244;-85
2022/11/27 11:17:29;;;;;;;32.05;18.58;;;8.10;99.90;;;;;;5020256;28;20228;-86
2022/11/27 11:19:56;;;;;;;32.20;19.20;;;8.30;99.90;;;;;;5018997;28;20198;-87
2022/11/27 11:22:24;;;;;;;26.30;15.05;;;8.00;99.90;;;;;;5026341;28;20205;-88
2022/11/27 11:24:54;;;;;;;36.92;18.92;;;8.00;99.90;;;;;;5010642;28;20225;-87
2022/11/27 11:27:26;;;;;;;29.77;17.20;;;8.10;99.90;;;;;;5024253;28;20349;-88
2022/11/27 11:29:54;;;;;;;24.58;13.20;;;8.40;99.90;;;;;;5046604;28;20500;-87
2022/11/27 11:32:28;;;;;;;32.40;16.58;;;8.60;99.90;;;;;;5024339;28;20256;-88
2022/11/27 11:34:58;;;;;;;19.17;13.15;;;8.70;99.90;;;;;;5018786;28;20202;-88
2022/11/27 11:37:32;;;;;;;26.27;13.15;;;8.60;99.90;;;;;;5007949;28;20206;-87
2022/11/27 11:40:15;;;;;;;19.00;12.90;;;8.30;99.90;;;;;;5029427;28;20244;-89
2022/11/27 11:42:52;;;;;;;17.05;12.10;;;8.50;99.90;;;;;;5026853;28;20216;-87
2022/11/27 11:45:23;;;;;;;25.15;13.63;;;8.60;99.90;;;;;;5046525;28;20208;-88
2022/11/27 11:48:02;;;;;;;20.60;12.02;;;8.80;99.90;;;;;;5041524;28;20225;-85
2022/11/27 11:50:46;;;;;;;27.08;14.35;;;8.80;99.90;;;;;;5030843;28;20194;-86
2022/11/27 11:53:44;;;;;;;21.25;12.75;;;8.80;99.90;;;;;;5029258;28;20518;-87
2022/11/27 11:56:14;;;;;;;17.55;11.25;;;9.10;99.90;;;;;;5031565;28;20243;-84
2022/11/27 11:58:47;;;;;;;14.63;10.90;;;9.30;99.90;;;;;;5032904;28;20213;-83
2022/11/27 12:01:35;;;;;;;19.02;12.50;;;8.50;99.90;;;;;;5029298;28;20597;-83
2022/11/27 12:04:20;;;;;;;16.00;10.43;;;8.50;99.90;;;;;;5045397;28;20204;-82
2022/11/27 12:07:00;;;;;;;16.20;11.43;;;8.50;99.90;;;;;;5019588;28;20531;-84
2022/11/27 12:09:45;;;;;;;19.90;10.90;;;8.60;99.90;;;;;;5028123;28;20196;-87
2022/11/27 12:12:36;;;;;;;17.33;11.52;;;8.50;99.90;;;;;;5020651;28;20379;-82
2022/11/27 12:15:25;;;;;;;17.85;12.18;;;8.60;99.90;;;;;;5025581;28;20205;-82
2022/11/27 12:18:09;;;;;;;22.30;13.65;;;9.00;99.90;;;;;;5019616;28;20221;-83
2022/11/27 12:21:12;;;;;;;21.42;11.63;;;9.00;99.90;;;;;;5006031;28;20212;-83
2022/11/27 12:24:00;;;;;;;18.30;12.10;;;8.90;99.90;;;;;;5022674;28;20213;-83
2022/11/27 12:26:33;;;;;;;19.15;13.20;;;8.80;99.90;;;;;;5019227;28;20268;-84
2022/11/27 12:29:39;;;;;;;16.83;11.45;;;9.00;99.90;;;;;;5021140;28;20218;-83
2022/11/27 12:32:30;;;;;;;17.50;12.82;;;8.90;99.90;;;;;;5018057;28;20236;-86
2022/11/27 12:35:04;;;;;;;22.90;14.75;;;8.80;99.90;;;;;;5015740;28;20236;-83
2022/11/27 12:37:59;;;;;;;15.77;11.55;;;8.70;99.90;;;;;;5018520;28;20202;-83
2022/11/27 12:40:54;;;;;;;16.23;11.23;;;9.00;99.90;;;;;;5019327;28;20540;-83
2022/11/27 12:43:26;;;;;;;36.97;19.88;;;9.10;99.90;;;;;;5019250;28;20218;-85
2022/11/27 12:46:08;;;;;;;26.65;15.63;;;9.00;99.90;;;;;;5022895;28;20220;-83
2022/11/27 12:48:46;;;;;;;27.27;17.77;;;9.10;99.90;;;;;;5031999;28;20257;-84
2022/11/27 12:51:28;;;;;;;29.60;18.70;;;9.00;99.90;;;;;;5020111;28;20576;-85
2022/11/27 12:54:02;;;;;;;18.60;13.15;;;9.00;99.90;;;;;;5010758;28;20289;-85
2022/11/27 12:56:36;;;;;;;25.15;16.33;;;8.80;99.90;;;;;;5012598;28;20229;-83
2022/11/27 12:59:15;;;;;;;24.23;16.17;;;8.70;99.90;;;;;;5013533;28;20197;-83
2022/11/27 13:01:51;;;;;;;18.80;15.10;;;8.60;99.90;;;;;;5012963;28;20209;-85
2022/11/27 13:04:43;;;;;;;25.00;15.63;;;8.60;99.90;;;;;;5011024;28;20578;-85
2022/11/27 13:07:19;;;;;;;21.33;12.25;;;8.50;99.90;;;;;;5011287;28;20202;-85